Pagrindinis puslapis
METAR-TAF:

METAR-TAF

Oro uostai :

Naujasis Orleanas, Luiziana, Jungtinės Amerikos Valstijos

platuma: 29-59-34N, ilguma: 090-15-03W, Aukštis: 1 m

Dabartinis oras

Ataskaita buvo paskelbta 1 valandą ir 9 minutes, ne 06:53 UTC
Vėjas 4 kt iš Rytų
Temperatūra 8°C
Drėgmė 76%
Slėgis 1023 hPa
Matomumas: 16.1 km
Giedras dangus

METAR: KMSY 190653Z 10004KT 10SM CLR 08/04 A3022 RMK AO2 SLP235 T00830039

Laikas: 02:02 (08:02 UTC)

Prognozė

Ataskaita buvo paskelbta 2 valandos ir 42 minutes, ne 05:20 UTC
Prognozė galioja nuo 19 metu 06 UTC su 20 metu 12 UTC
Vėjas 4 kt nuo kintamojo kryptimis
Matomumas: 10 km
Giedras dangus

TAF: KMSY 190520Z 1906/2012 VRB04KT P6SM SKC

Orai ataskaitas ir orų prognozės (METAR, TAF).

turimą stotys yra geltonos ir raudonos taškus žemėlapyje.

Perkelti pele per norėdami pamatyti stoties vardą.

Tada spustelėkite, norėdami matyti oro stebėjimo ir prognozės.

Norėdami pakeisti žemėlapį: spustelėkite ant žalios mygtukų su juodo kryžiaus žemyn,; žalią mygtuką su brūkšneliu, jei norite nutolinti; arba žalių rodyklių gretimoms žemėlapius.


METAR-TAF: